AirNav   Everest Fuels
 
 843 users online  

09IN Gordon Airport
Columbia City, Indiana, USA

GOING TO COLUMBIA CITY?


FAA INFORMATION EFFECTIVE 21 MAY 2020

Location

FAA Identifier: 09IN
Lat/Long: 41-07-15.1680N 085-25-29.9180W
41-07.252800N 085-25.498633W
41.1208800,-85.4249772
(estimated)
Elevation: 850 ft. / 259 m (estimated)
Variation: 03W (1985)
From city: 3 miles SE of COLUMBIA CITY, IN
Time zone: UTC -4 (UTC -5 during Standard Time)
Zip code: 46725

Airport Operations

Airport use: Private use. Permission required prior to landing
Activation date: 03/1972
Control tower: no
ARTCC: CHICAGO CENTER
FSS: TERRE HAUTE FLIGHT SERVICE STATION
Attendance: MON-SAT DAWN-DUSK
Wind indicator: yes
Segmented circle: no

Airport Communications

WX AWOS-3 at SMD (12 nm E): 124.55 (260-490-4030)
WX ASOS at FWA (13 nm SE): PHONE 260-479-6621
WX AWOS-3PT at HHG (16 nm S): 126.575 (260-454-1927)
WX AWOS-3 at GWB (20 nm NE): 124.15 (260-925-8225)

Nearby radio navigation aids

VOR radial/distance  VOR name  Freq  Var
OLKr160/(8.2)WEBSTER LAKE VOR110.4003W
FWAr314/13.7FORT WAYNE VORTAC117.8006W
GSHr132/36.4GOSHEN VORTAC113.7000E
MZZr020/39.4MARION VOR/DME108.6003W

Airport Services

Airframe service: NONE
Powerplant service: NONE

Runway Information

Runway 9/27

Dimensions: 2200 x 70 ft. / 671 x 21 m
Surface: turf
Runway edge lights: medium intensity
RUNWAY 9  RUNWAY 27
Traffic pattern: leftleft
Obstructions: bldgs, 60 ft. from runwaynone

Runway 18/36

Dimensions: 2200 x 50 ft. / 671 x 15 m
Surface: turf
RUNWAY 18  RUNWAY 36
Traffic pattern: leftleft

Airport Ownership and Management from official FAA records

Ownership: Privately-owned
Owner: MARGIE A.. GORDON
3253 E 300S
COLUMBIA CITY, IN 46725
Phone (260) 244-3525
Manager: BENNY B. GORDON
1605 E 300S
COLUMBIA CITY, IN 46725
Phone (260) 609-1452

Airport Operational Statistics

Aircraft based on the field: 7
Single engine airplanes: 2
Ultralights: 5
    
Aircraft operations: avg 21/week
93% local general aviation
7% transient general aviation

Additional Remarks

ARPT CLSD DURING SPRING THAW.
FOR CD CTC CHICAGO ARTCC AT 630-906-8921.

Instrument Procedures

There are no published instrument procedures at 09IN.

Some nearby airports with instrument procedures:

KSMD - Smith Field Airport (12 nm E)
KFWA - Fort Wayne International Airport (13 nm SE)
KHHG - Huntington Municipal Airport (16 nm S)
KGWB - De Kalb County Airport (20 nm NE)
KASW - Warsaw Municipal Airport (21 nm NW)
 
Loc | Ops | Rwys | IFR | FBO | Links
Com | Nav | Svcs | Stats | Notes
Area around 09IN (Gordon Airport)
 
Road maps at: MapQuest Bing Google
 
Aerial photo
WARNING: Photo may not be current or correct
Aerial photo of 09IN (Gordon Airport)
Photo by Ben Gordon
Photo taken 04-Aug-2006

Do you have a better or more recent aerial photo of Gordon Airport that you would like to share? If so, please send us your photo.

 
Sectional chart

 
Airport distance calculator
Flying to Gordon Airport? Find the distance to fly.

From to 09IN

Sunrise and sunset
Times for 02-Jun-2020
 Local
(UTC-4)
 Zulu
(UTC)
Morning civil twilight05:3809:38
Sunrise06:1210:12
Sunset21:0801:08
Evening civil twilight21:4101:41

Current date and time
Zulu (UTC)  03-Jun-2020 03:13:06
Local (UTC-4)  02-Jun-2020 23:13:06
 
METAR
KSMD 
12nm E 
030255Z AUTO 22009G15KT 10SM CLR 27/15 A2987 RMK A01
KFWA 
14nm SE 
030254Z 23014KT 10SM FEW250 27/14 A2987 RMK AO2 SLP107 T02670139 53007
KHHG 
16nm S 
030255Z AUTO 24007G14KT 10SM CLR 26/12 A2988 RMK AO2 T02610123
KGWB 
20nm NE 
030255Z AUTO 22005KT 10SM CLR 26/16 A2985 RMK AO2
KASW 
21nm NW 
030255Z AUTO 25010KT 10SM CLR 27/16 A2987 RMK AO2
KC62 
22nm N 
030255Z AUTO 24009G15KT 10SM CLR 26/14 A2985 RMK AO2 T02680145
TAF
KFWA 
14nm SE 
021724Z 0218/0318 25014G23KT P6SM FEW250 FM030100 23010KT P6SM FEW120 FM030400 24011KT P6SM BKN120 WS020/28040KT FM031100 25012KT P6SM BKN100
NOTAMs
Click for the latest NOTAMs
NOTAMs are issued by the DoD/FAA and will open in a separate window not controlled by AirNav.

 

 
 

Would you like to see your business listed on this page?

 If your business provides an interesting product or service to pilots, flight crews, aircraft, or users of the Gordon Airport, you should consider listing it here.  To start the listing process, click on the button below
 
Add a business
 

Other Pages about Gordon Airport

Update a link
 
Copyright © AirNav, LLC. All rights reserved. Privacy Policy  Contact